Search for airport 
image banner adimage banner adimage banner ad
image banner ad

P45 - Mount Pleasant/Scottdale

Located in Mount Pleasant, United States

ICAO - P45, IATA -

Data provided by Airmate  

General information

Coordinates: N40°6'27" W79°32'35"
Elevation is 1160 feet MSL.
Magnetic variation is -08° East
View others Airports in Pennsylvania

Operational data

Special qualification required
Current time UTC:
Current local time:
Weather at : KLBE - Arnold Palmer Rgnl ( 22 km )
METAR: KLBE 131847Z 00000KT 15SM BKN033 BKN050 27/20 A2987
TAF: KLBE 131720Z 1318/1418 25005KT P6SM VCTS BKN050CB TEMPO 1320/1323 4SM -TSRA OVC040CB FM140100 24003KT P6SM SCT060 FM140600 25003KT 3SM BR BKN015 FM141300 23004KT P6SM SCT035
View NOTAMs / SUP AIP / TFR affecting this airport [VIEW]
Communications frequencies: [VIEW]

Runways:

RWY identifierQFULength (ft)Width (ft)SurfaceLDA (ft)
0653°2158135GRASS
24233°2158135GRASS
14130°1641175GRASS
32310°1641175GRASS

Airport contact information

Address: Mount Pleasant United States

Other aviation service providers

Flight schools

Mt. Pleasant Airport Llc

Mt. Pleasant Airport Llc
n9ug@hotmail.com+1(724)220-5556

Satellite view of P45